WetterOnline ( https://www.wetteronline.de )

Wetter aktuell Larderia

Aktuelles Wetter: Messina (51m)

6-stündlich | Neueste Meldungen
Ortszeit Temperatur Wetter
Di, 28.01. 1:00 12.4° C leicht bewölkt
Mo, 27.01. 19:00 14.0° C leicht bewölkt
Mo, 27.01. 13:00 15.2° C wolkig
Mo, 27.01. 7:00 13.2° C wolkig
Mo, 27.01. 1:00 13.4° C wolkig
So, 26.01. 19:00 14.6° C leicht bewölkt
So, 26.01. 13:00 17.0° C leicht bewölkt
So, 26.01. 7:00 14.2° C wolkig
Ortszeit Temperatur Wetter
Di, 28.01. 4:00 11.8° C leicht bewölkt
Di, 28.01. 3:55 12° C leicht bewölkt
Di, 28.01. 3:00 11.6° C leicht bewölkt
Di, 28.01. 2:55 12° C leicht bewölkt
Di, 28.01. 2:00 11.6° C leicht bewölkt
Di, 28.01. 1:55 12° C leicht bewölkt
Di, 28.01. 1:00 12.4° C leicht bewölkt
Di, 28.01. 0:55 12° C leicht bewölkt
Di, 28.01. 0:00 12.8° C leicht bewölkt
Ortszeit Relative Feuchte Sichtweite
Di, 28.01. 1:00 87% 12 km
Mo, 27.01. 19:00 80% 16 km
Mo, 27.01. 13:00 72% 20 km
Mo, 27.01. 7:00 81% 12 km
Mo, 27.01. 1:00 85% 12 km
So, 26.01. 19:00 74% 16 km
So, 26.01. 13:00 79% 20 km
So, 26.01. 7:00 90% 10 km
Ortszeit Relative Feuchte Sichtweite
Di, 28.01. 4:00 87% 10 km
Di, 28.01. 3:55 88% >10 km
Di, 28.01. 3:00 86% 10 km
Di, 28.01. 2:55 82% >10 km
Di, 28.01. 2:00 87% 10 km
Di, 28.01. 1:55 88% >10 km
Di, 28.01. 1:00 87% 12 km
Di, 28.01. 0:55 88% >10 km
Di, 28.01. 0:00 87% 10 km
Ortszeit Niederschlagsmenge Niederschlagsart
Di, 28.01. 1:00 0.0 l/m2 in 6 Std. -
Mo, 27.01. 19:00 0.0 l/m2 in 12 Std. -
Mo, 27.01. 13:00 0.0 l/m2 in 6 Std. -
Mo, 27.01. 7:00 0.6 l/m2 in 12 Std. -
Mo, 27.01. 1:00 0.6 l/m2 in 6 Std. Regen
So, 26.01. 19:00 0.0 l/m2 in 12 Std. -
So, 26.01. 13:00 0.0 l/m2 in 6 Std. -
So, 26.01. 7:00 0.0 l/m2 in 12 Std. -
Ortszeit Niederschlagsmenge Niederschlagsart
Di, 28.01. 4:00 keine Meldung -
Di, 28.01. 3:55 keine Meldung -
Di, 28.01. 3:00 keine Meldung -
Di, 28.01. 2:55 keine Meldung -
Di, 28.01. 2:00 keine Meldung -
Di, 28.01. 1:55 keine Meldung -
Di, 28.01. 1:00 keine Meldung -
Di, 28.01. 0:55 keine Meldung -
Di, 28.01. 0:00 keine Meldung -
Ortszeit Stärke Spitze Richtung
km/h Bft. km/h Grad Sektor
Di, 28.01. 1:00 4 1 - 320° NW
Mo, 27.01. 19:00 4 1 - 300° NW
Mo, 27.01. 13:00 7 2 - 310° NW
Mo, 27.01. 7:00 6 1 - 330° NW
Mo, 27.01. 1:00 9 2 - 300° NW
So, 26.01. 19:00 4 1 - 300° NW
So, 26.01. 13:00 11 2 - 220° SW
So, 26.01. 7:00 17 3 - 200° S
Ortszeit Stärke Spitze Richtung
km/h Bft. km/h Grad Sektor
Di, 28.01. 4:00 6 1 - 330° NW
Di, 28.01. 3:55 6 1 - 330° NW
Di, 28.01. 3:00 6 1 - 320° NW
Di, 28.01. 2:55 6 1 - 320° NW
Di, 28.01. 2:00 6 1 - 310° NW
Di, 28.01. 1:55 6 1 - 310° NW
Di, 28.01. 1:00 4 1 - 320° NW
Di, 28.01. 0:55 4 1 - 320° NW
Di, 28.01. 0:00 6 1 - 350° N
Ortszeit Untergrenze Bedeckung Gattung
total tief tief mittel hoch
Di, 28.01. 1:00 900 m 3/8 3/8 Sc - -
Mo, 27.01. 19:00 750 m 5/8 5/8 Cu - -
Mo, 27.01. 13:00 750 m 6/8 6/8 Cb - -
Mo, 27.01. 7:00 750 m 5/8 4/8 Sc As Ci
Mo, 27.01. 1:00 900 m 6/8 5/8 Sc As Ci
So, 26.01. 19:00 900 m 2/8 2/8 Sc - -
So, 26.01. 13:00 600 m 5/8 3/8 Sc - Cs
So, 26.01. 7:00 900 m 7/8 3/8 Sc As Cs
Ortszeit Bedeckungsgrad in Achtel und Wolkenuntergrenze
Di, 28.01. 4:00 2(690m) 3(2400m)
Di, 28.01. 3:55 1-2(690m)
Di, 28.01. 3:00 2(900m) 3(2400m)
Di, 28.01. 2:55 1-2(900m)
Di, 28.01. 2:00 3(900m)
Di, 28.01. 1:55 3-4(900m)
Di, 28.01. 1:00 3(900m)
Di, 28.01. 0:55 3-4(900m)
Di, 28.01. 0:00 4(750m)
Ortszeit Luftdruck NN (hPa) Tendenz (hPa in 3 Std.)
Di, 28.01. 1:00 1022 - 0,1
Mo, 27.01. 19:00 1022 + 0,6
Mo, 27.01. 13:00 1022 + 0,3
Mo, 27.01. 7:00 1020 + 0,8
Mo, 27.01. 1:00 1020 + 0,4
So, 26.01. 19:00 1019 + 0,6
So, 26.01. 13:00 1019 - 0,8
So, 26.01. 7:00 1020 - 0,3
Ortszeit Luftdruck NN (hPa) Tendenz (hPa in 3 Std.)
Di, 28.01. 4:00 1022 - 0,7
Di, 28.01. 3:55 1021 keine Meldung
Di, 28.01. 3:00 1022 - 0,7
Di, 28.01. 2:55 1021 keine Meldung
Di, 28.01. 2:00 1022 - 0,4
Di, 28.01. 1:55 1022 keine Meldung
Di, 28.01. 1:00 1022 - 0,1
Di, 28.01. 0:55 1022 keine Meldung
Di, 28.01. 0:00 1023 0,0
Ortszeit Schneehöhe (cm)
Di, 28.01. 1:00 -
Mo, 27.01. 19:00 -
Mo, 27.01. 13:00 -
Mo, 27.01. 7:00 0
Mo, 27.01. 1:00 -
So, 26.01. 19:00 -
So, 26.01. 13:00 -
So, 26.01. 7:00 0
Ortszeit Schneehöhe (cm)
Di, 28.01. 4:00 -
Di, 28.01. 3:55 -
Di, 28.01. 3:00 -
Di, 28.01. 2:55 -
Di, 28.01. 2:00 -
Di, 28.01. 1:55 -
Di, 28.01. 1:00 -
Di, 28.01. 0:55 -
Di, 28.01. 0:00 -
Link zu dieser Seite / Seite empfehlen

Das Wetter in ...